WETTERDATEN

GESTERN
Time Temp. Taup. r.Fe. Druck 1h Prec. 24h Prec.
00:06 11.3 8 80 1020 0.0000 0.0000
00:16 11.1 7.8 80 1019.8 0.0000 0.0000
00:26 10.9 7.6 80 1019.9 0.0000 0.0000
00:36 10.8 7.5 80 1019.9 0.0000 0.0000
00:46 10.6 7.3 80 1019.8 0.0000 0.0000
00:55 10.5 7.2 80 1019.7 0.0000 0.0000
01:06 10.3 7.2 81 1019.5 0.0000 0.0000
01:16 10.2 7.1 81 1019.7 0.0000 0.0000
01:27 10.1 7 81 1019.8 0.0000 0.0000
01:37 10 6.9 81 1019.9 0.0000 0.0000
01:46 9.9 6.8 81 1020 0.0000 0.0000
01:56 9.9 7 82 1020 0.0000 0.0000
02:07 9.8 6.9 82 1019.9 0.0000 0.0000
02:17 9.8 6.9 82 1019.9 0.0000 0.0000
02:26 9.8 7.1 83 1020 0.0000 0.0000
02:37 9.7 7 83 1019.8 0.0000 0.0000
02:47 9.6 6.9 83 1019.8 0.0000 0.0000
02:57 9.5 6.6 82 1019.9 0.0000 0.0000
03:07 9.3 6.4 82 1019.8 0.0000 0.0000
03:17 9.2 6.3 82 1019.7 0.0000 0.0000
03:27 9.1 6.4 83 1019.6 0.0000 0.0000
03:37 9 6.1 82 1019.6 0.0000 0.0000
03:48 8.8 5.9 82 1019.5 0.0000 0.0000
03:57 8.7 6 83 1019.5 0.0000 0.0000
04:07 8.7 6 83 1019.5 0.0000 0.0000
04:17 8.6 5.9 83 1019.6 0.0000 0.0000
04:28 8.5 5.8 83 1019.5 0.0000 0.0000
04:38 8.4 5.7 83 1019.6 0.0000 0.0000
04:47 8.3 5.6 83 1019.5 0.0000 0.0000
04:58 8.2 5.5 83 1019.4 0.0000 0.0000
05:08 8.1 5.4 83 1019.4 0.0000 0.0000
05:18 8 5.3 83 1019.3 0.0000 0.0000
05:28 7.9 5.2 83 1019.3 0.0000 0.0000
05:38 7.8 5.1 83 1019.3 0.0000 0.0000
05:48 7.8 5.3 84 1019.3 0.0000 0.0000
05:58 7.7 5.2 84 1019.3 0.0000 0.0000
06:09 7.7 5.2 84 1019.4 0.0000 0.0000
06:18 7.6 5.1 84 1019.2 0.0000 0.0000
06:28 7.5 5 84 1019.3 0.0000 0.0000
06:38 7.4 4.9 84 1019.3 0.0000 0.0000
06:49 7.3 4.8 84 1019.2 0.0000 0.0000
06:58 7.3 4.8 84 1019.3 0.0000 0.0000
07:08 7.2 4.7 84 1019.3 0.0000 0.0000
07:19 7.1 4.6 84 1019.3 0.0000 0.0000
07:29 7 4.5 84 1019.4 0.0000 0.0000
07:38 7 4.5 84 1019.3 0.0000 0.0000
07:48 6.9 4.4 84 1019.5 0.0000 0.0000
07:59 6.9 4.4 84 1019.5 0.0000 0.0000
08:09 6.9 4.4 84 1019.6 0.0000 0.0000
08:19 6.9 4.6 85 1019.6 0.0000 0.0000
08:29 7 4.7 85 1019.7 0.0000 0.0000
08:39 7.1 4.8 85 1019.6 0.0000 0.0000
08:49 7.2 4.9 85 1019.6 0.0000 0.0000
08:59 7.4 5.2 86 1019.3 0.0000 0.0000
09:09 7.6 5.6 87 1019.4 0.0000 0.0000
09:19 7.9 5.9 87 1019.3 0.0000 0.0000
09:29 8.2 6.3 88 1019.5 0.0000 0.0000
09:40 8.6 6.7 88 1019.5 0.0000 0.0000
09:50 9 7.1 88 1019.6 0.0000 0.0000
09:59 9.4 7.7 89 1019.5 0.0000 0.0000
10:09 9.9 8.2 89 1019.5 0.0000 0.0000
10:20 10.3 8.6 89 1019.6 0.0000 0.0000
10:30 10.7 9.1 90 1019.6 0.0000 0.0000
10:39 11.2 9.8 91 1019.5 0.0000 0.0000
10:50 11.7 10.3 91 1019.6 0.0000 0.0000
11:00 12.3 10.9 91 1019.5 0.0000 0.0000
11:10 12.8 11.4 91 1019.3 0.0000 0.0000
11:20 13.2 11.8 91 1019.1 0.0000 0.0000
11:30 13.7 12.3 91 1019.1 0.0000 0.0000
11:40 14.2 12.6 90 1018.9 0.0000 0.0000
11:50 14.7 13.1 90 1018.9 0.0000 0.0000
12:01 15.1 13.3 89 1018.8 0.0000 0.0000
12:10 15.5 13.5 88 1018.7 0.0000 0.0000
12:20 15.9 13.7 87 1018.7 0.0000 0.0000
12:30 16.3 14.1 87 1018.8 0.0000 0.0000
12:41 16.8 14.4 86 1018.5 0.0000 0.0000
12:50 17.2 14.7 85 1018.5 0.0000 0.0000
13:00 17.6 14.9 84 1018.4 0.0000 0.0000
13:11 17.9 15 83 1018.4 0.0000 0.0000
13:21 18.3 15.2 82 1018.2 0.0000 0.0000
13:31 18.7 15.4 81 1018.3 0.0000 0.0000
13:40 19 15.5 80 1018.1 0.0000 0.0000
13:51 19.3 15.6 79 1018.1 0.0000 0.0000
14:01 19.6 15.7 78 1017.9 0.0000 0.0000
14:11 19.9 15.8 77 1017.8 0.0000 0.0000
14:21 20.2 15.8 76 1017.7 0.0000 0.0000
14:31 20.4 15.8 75 1017.6 0.0000 0.0000
14:41 20.6 16 75 1017.4 0.0000 0.0000
14:51 20.8 16 74 1017.4 0.0000 0.0000
15:02 21 16.2 74 1017.4 0.0000 0.0000
15:11 21.1 16.3 74 1017.3 0.0000 0.0000
15:21 21.2 16.4 74 1017.3 0.0000 0.0000
15:32 21.4 16.6 74 1017.1 0.0000 0.0000
15:42 21.5 16.5 73 1017 0.0000 0.0000
15:51 21.6 16.6 73 1017 0.0000 0.0000
16:01 21.7 16.9 74 1016.9 0.0000 0.0000
16:12 21.8 17 74 1016.7 0.0000 0.0000
16:22 21.9 16.8 73 1016.7 0.0000 0.0000
16:32 22 16.9 73 1016.5 0.0000 0.0000
16:42 22.1 17 73 1016.4 0.0000 0.0000
16:52 22.1 17 73 1016.3 0.0000 0.0000
17:02 22.2 17.1 73 1016.2 0.0000 0.0000
17:12 22.2 17.1 73 1016 0.0000 0.0000
17:22 22.3 17.2 73 1016 0.0000 0.0000
17:32 22.3 17 72 1016 0.0000 0.0000
17:42 22.3 17 72 1016 0.0000 0.0000
17:53 22.3 17 72 1016.2 0.0000 0.0000
18:03 22.2 16.9 72 1016.3 0.0000 0.0000
18:12 22.1 16.6 71 1016.3 0.0000 0.0000
18:22 22 16.5 71 1016.4 0.0000 0.0000
18:33 21.9 16.4 71 1016.5 0.0000 0.0000
18:43 21.8 16.5 72 1016.8 0.0000 0.0000
19:03 21.5 16.2 72 1016.8 0.0000 0.0000
19:13 21.3 16.1 72 1016.8 0.0000 0.0000
19:23 21.1 16.1 73 1016.9 0.0000 0.0000
19:33 20.9 15.9 73 1016.9 0.0000 0.0000
19:43 20.7 15.7 73 1017.1 0.0000 0.0000
19:53 20.5 15.7 74 1017.1 0.0000 0.0000
20:03 20.3 15.5 74 1017.1 0.0000 0.0000
20:14 20.1 15.5 75 1016.9 0.0000 0.0000
20:23 19.9 15.3 75 1016.8 0.0000 0.0000
20:33 19.8 15.5 76 1017 0.0000 0.0000
20:43 19.7 15.4 76 1017 0.0000 0.0000
20:54 19.6 15.3 76 1016.9 0.0000 0.0000
21:03 19.6 15.5 77 1017.1 0.0000 0.0000
21:13 19.5 15.4 77 1017.1 0.0000 0.0000
21:24 19.4 15.3 77 1017.2 0.0000 0.0000
21:34 19.3 15.2 77 1017.3 0.0000 0.0000
21:44 19.1 15 77 1017.4 0.0000 0.0000
21:53 19 14.9 77 1017.4 0.0000 0.0000
22:04 18.9 15 78 1017.5 0.0000 0.0000
22:14 18.9 15 78 1017.6 0.0000 0.0000
22:24 18.7 14.8 78 1017.6 0.0000 0.0000
22:34 18.6 14.7 78 1017.7 0.0000 0.0000
22:44 18.5 14.6 78 1017.5 0.0000 0.0000
22:54 18.5 14.8 79 1017.7 0.0000 0.0000
23:04 18.4 14.7 79 1017.5 0.0000 0.0000
23:15 18.3 14.6 79 1017.5 0.0000 0.0000
23:24 18.2 14.5 79 1017.6 0.0000 0.0000
23:34 18.2 14.9 81 1017.6 0.0000 0.0000
23:45 18.4 15.1 81 1017.7 0.0000 0.0000
23:55 18.4 15.1 81 1017.8 0.0000

TAGESSTATISTIK

2021-09-25
TEMPERATUR
MITTEL
14.6
MAXIMUM
22.3
17:22
MINIMUM
6.9
07:48
LUFTDRUCK
MITTEL
1018.4
MAXIMUM
1020.0
00:06
MINIMUM
1016.0
17:12
TAUPUNKT
MITTEL
11.2
MAXIMUM
17.2
17:22
MINIMUM
4.4
07:48
FEUCHTIGKEIT
MITTEL
81
MAXIMUM
91
10:39
MINIMUM
71
18:12
NIEDERSCHLAG
REGEN STUNDE
0.0
REGEN TAG
0.0
TEMPERATUR (°C)
MINIMUM
6.9
MAXIMUM
22.3
MITTEL
14.6
LUFTDRUCK (hpa)
MINIMUM
1016.0
MAXIMUM
1020.0
MITTEL
1018.4
MESSGERÄT